Etusivu
METAR-TAF:

METAR-TAF

Lentoasemat :

Marham, Englanti

Leveyspiiri: 52-39N, Pituuspiiri: 000-34E, korkeus merenpinnasta: 23 m

Tämänhetkinen sää

Tämä raportti tehtiin 1 tunti ja 19 minuuttia sitten, kello 02.50 UTC
Tuuli 3 kn etelästä
Lämpötila 4°C
Kosteus 100%
Ilmanpaine 1024 hPa
Näkyvyys: 5000 m
Hajonneita pilviä 3500 ft:n korkeudessa
utua

METAR: EGYM 190250Z 19003KT 5000 BR BKN035 04/04 Q1024 REDZ WHT

Aika: 04:09 (04:09 UTC)

Sääennuste

Tämä raportti tehtiin 11 tuntia ja 24 minuuttia sitten, kello 16.45 UTC
Ennuste voimassa 18. päivästä klo 18 UTC - 18. päivään klo 21 UTC
Tuuli 7 kn lännestä/lounaasta
Näkyvyys 10 km tai enemmän
Hajanaisia pilviä 3000 ft:n korkeudessa

TAF: EGYM 181645Z 1818/1821 25007KT 9999 SCT030

Säähavainnot ja -ennusteet yli 4000 lentoasemalta (METAR- ja TAF-raportit).

Käytössä olevat sääasemat on merkitty karttaan keltaisilla ja punaisilla pisteillä.

Aseta hiiri pisteen päälle nähdäksesi sääaseman nimen.

Klikkaa sitten nähdäksesi säähavainnot ja -ennusteet.

Kartan vaihtaminen: klikkaa mustalla rastilla varustettuja vihreitä pisteitä, niin voit zoomata sisään; viivalla varustettua vihreää pistettä, niin voit zoomata ulos tai vihreitä nuolia, niin pääset viereisille kartoille.


METAR-TAF: